createdAt,value
2022-08-19T00:02:31.482Z,97747.09
2022-08-19T00:05:51.885Z,97742.88
2022-08-19T00:09:05.525Z,97737.84
2022-08-19T00:12:20.218Z,97731.50
2022-08-19T00:19:07.619Z,97739.34
2022-08-19T00:22:19.044Z,97739.97
2022-08-19T00:26:01.155Z,97740.78
2022-08-19T00:29:28.215Z,97750.13
2022-08-19T00:32:35.770Z,97750.91
2022-08-19T00:36:12.722Z,97732.56
2022-08-19T00:40:03.435Z,97727.47
2022-08-19T00:43:32.522Z,97718.06
2022-08-19T00:46:58.214Z,97704.75
2022-08-19T00:50:06.765Z,97708.63
2022-08-19T00:53:27.330Z,97714.03
2022-08-19T01:00:17.490Z,97720.59
2022-08-19T01:03:57.334Z,97724.88
2022-08-19T01:07:22.648Z,97735.09
2022-08-19T01:10:42.972Z,97740.91
2022-08-19T01:14:05.757Z,97738.19
2022-08-19T01:21:14.481Z,97727.03
2022-08-19T01:24:46.666Z,97723.94
2022-08-19T01:28:39.739Z,97725.81
2022-08-19T01:32:03.487Z,97727.69
2022-08-19T01:35:18.674Z,97726.09
2022-08-19T01:38:46.939Z,97717.91
2022-08-19T01:42:08.845Z,97712.47
2022-08-19T01:45:15.836Z,97716.69
2022-08-19T01:48:23.135Z,97717.91
2022-08-19T01:51:39.590Z,97717.56
2022-08-19T01:54:50.474Z,97712.53
2022-08-19T01:58:09.879Z,97715.63
2022-08-19T02:01:21.527Z,97718.19
2022-08-19T02:04:32.890Z,97724.00
2022-08-19T02:07:44.852Z,97722.06
2022-08-19T02:11:03.962Z,97737.66
2022-08-19T02:14:20.022Z,97737.66
2022-08-19T02:17:41.445Z,97730.97
2022-08-19T02:21:07.475Z,97719.72
2022-08-19T02:24:18.383Z,97727.47
2022-08-19T02:27:32.400Z,97732.19
2022-08-19T02:30:47.886Z,97725.50
2022-08-19T02:34:00.412Z,97724.31
2022-08-19T02:37:09.937Z,97728.16
2022-08-19T02:40:15.904Z,97726.91
2022-08-19T02:43:29.849Z,97725.53
2022-08-19T02:46:43.418Z,97725.44
2022-08-19T02:50:05.019Z,97720.78
2022-08-19T02:53:24.565Z,97720.34
2022-08-19T02:56:38.971Z,97720.53
2022-08-19T02:59:49.837Z,97722.06
2022-08-19T03:03:02.507Z,97722.06
2022-08-19T03:06:24.216Z,97713.94
2022-08-19T03:09:50.812Z,97714.31
2022-08-19T03:13:05.194Z,97721.25
2022-08-19T03:19:51.397Z,97723.72
2022-08-19T03:23:11.793Z,97732.47
2022-08-19T03:26:25.432Z,97730.72
2022-08-19T03:30:11.696Z,97733.09
2022-08-19T03:33:28.737Z,97720.63
2022-08-19T03:36:44.097Z,97717.09
2022-08-19T03:39:53.848Z,97726.75
2022-08-19T03:43:16.801Z,97729.31
2022-08-19T03:46:27.738Z,97737.75
2022-08-19T03:49:57.881Z,97722.78
2022-08-19T03:53:09.564Z,97714.16
2022-08-19T03:56:21.236Z,97718.81
2022-08-19T03:59:42.909Z,97720.88
2022-08-19T04:03:00.543Z,97725.41
2022-08-19T04:06:22.073Z,97735.19
2022-08-19T04:09:45.287Z,97731.13
2022-08-19T04:12:53.937Z,97731.13
2022-08-19T04:16:10.210Z,97732.03
2022-08-19T04:19:22.430Z,97738.44
2022-08-19T04:22:32.268Z,97739.47
2022-08-19T04:25:51.445Z,97737.47
2022-08-19T04:29:12.825Z,97734.47
2022-08-19T04:32:25.446Z,97732.25
2022-08-19T04:35:43.292Z,97724.88
2022-08-19T04:39:02.275Z,97721.34
2022-08-19T04:42:31.790Z,97719.72
2022-08-19T04:45:43.971Z,97727.88
2022-08-19T04:49:10.401Z,97740.00
2022-08-19T04:52:24.895Z,97743.16
2022-08-19T04:55:44.999Z,97739.41
2022-08-19T04:59:05.791Z,97738.25
2022-08-19T05:02:17.464Z,97740.19
2022-08-19T05:05:44.511Z,97740.97
2022-08-19T05:08:52.681Z,97745.66
2022-08-19T05:12:07.777Z,97747.09
2022-08-19T05:15:19.928Z,97746.66
2022-08-19T05:18:53.048Z,97753.59
2022-08-19T05:22:21.143Z,97763.00
2022-08-19T05:25:44.990Z,97765.47
2022-08-19T05:29:07.434Z,97790.28
2022-08-19T05:32:18.029Z,97796.97
2022-08-19T05:35:34.768Z,97812.00
2022-08-19T05:38:45.632Z,97813.56
2022-08-19T05:42:03.372Z,97831.53
2022-08-19T05:45:15.020Z,97833.56
2022-08-19T05:48:28.370Z,97837.16
2022-08-19T05:51:48.461Z,97828.53
2022-08-19T05:55:13.059Z,97826.69
2022-08-19T05:58:29.607Z,97832.88
2022-08-19T06:01:33.970Z,97834.78
2022-08-19T06:04:52.872Z,97827.06
2022-08-19T06:08:14.050Z,97828.63
2022-08-19T06:11:28.553Z,97825.75
2022-08-19T06:14:49.339Z,97832.25
2022-08-19T06:18:08.199Z,97831.13
2022-08-19T06:21:24.800Z,97833.03
2022-08-19T06:24:34.635Z,97828.72
2022-08-19T06:28:04.877Z,97830.25
2022-08-19T06:31:15.541Z,97827.06
2022-08-19T06:34:38.203Z,97823.53
2022-08-19T06:38:01.863Z,97827.22
2022-08-19T06:41:11.178Z,97825.38
2022-08-19T06:44:42.729Z,97837.53
2022-08-19T06:48:00.478Z,97840.34
2022-08-19T06:51:20.529Z,97841.03
2022-08-19T06:54:56.557Z,97835.94
2022-08-19T06:58:25.040Z,97834.47
2022-08-19T07:01:51.898Z,97834.53
2022-08-19T07:05:06.781Z,97834.63
2022-08-19T07:08:18.175Z,97838.88
2022-08-19T07:11:36.399Z,97845.38
2022-08-19T07:14:50.374Z,97844.13
2022-08-19T07:26:19.964Z,97857.59
2022-08-19T07:29:46.733Z,97856.00
2022-08-19T07:33:18.747Z,97851.34
2022-08-19T07:36:36.262Z,97855.31
2022-08-19T07:39:48.178Z,97861.75
2022-08-19T07:43:03.988Z,97859.63
2022-08-19T07:46:23.261Z,97851.78
2022-08-19T07:49:35.655Z,97863.06
2022-08-19T07:56:18.684Z,97855.94
2022-08-19T07:59:26.412Z,97859.25
2022-08-19T08:03:06.994Z,97858.56
2022-08-19T08:06:33.109Z,97863.16
2022-08-19T08:13:16.166Z,97866.84
2022-08-19T08:16:35.493Z,97867.38
2022-08-19T08:19:54.734Z,97869.13
2022-08-19T08:23:17.351Z,97876.19
2022-08-19T08:26:35.779Z,97877.69
2022-08-19T08:29:47.611Z,97874.00
2022-08-19T08:32:59.071Z,97870.81
2022-08-19T08:36:15.574Z,97883.22
2022-08-19T08:39:36.729Z,97871.50
2022-08-19T08:42:50.109Z,97875.84
2022-08-19T08:45:58.337Z,97880.13
2022-08-19T08:49:09.746Z,97880.06
2022-08-19T08:52:20.830Z,97870.19
2022-08-19T08:55:27.599Z,97874.06
2022-08-19T08:58:52.553Z,97877.69
2022-08-19T09:01:57.432Z,97875.75
2022-08-19T09:05:00.431Z,97872.66
2022-08-19T09:08:13.708Z,97868.19
2022-08-19T09:11:42.224Z,97868.69
2022-08-19T09:14:51.752Z,97871.72
2022-08-19T09:17:54.909Z,97882.66
2022-08-19T09:20:58.141Z,97871.97
2022-08-19T09:24:03.462Z,97872.84
2022-08-19T09:27:18.191Z,97878.13
2022-08-19T09:30:25.271Z,97883.13
2022-08-19T09:33:28.092Z,97883.28
2022-08-19T09:36:36.848Z,97883.66
2022-08-19T09:39:43.782Z,97884.03
2022-08-19T09:42:49.702Z,97882.31
2022-08-19T09:45:54.456Z,97884.00
2022-08-19T09:48:59.398Z,97883.19
2022-08-19T09:52:11.882Z,97878.19
2022-08-19T09:55:18.531Z,97893.25
2022-08-19T09:58:24.746Z,97897.53
2022-08-19T10:01:31.402Z,97892.00
2022-08-19T10:04:48.093Z,97888.22
2022-08-19T10:07:51.230Z,97889.47
2022-08-19T10:10:56.361Z,97886.28
2022-08-19T10:14:01.714Z,97878.41
2022-08-19T10:17:17.919Z,97881.00
2022-08-19T10:20:23.117Z,97892.28
2022-08-19T10:23:25.831Z,97883.72
2022-08-19T10:26:31.895Z,97892.38
2022-08-19T10:29:35.310Z,97876.47
2022-08-19T10:32:38.268Z,97884.78
2022-08-19T10:35:56.931Z,97871.28
2022-08-19T10:39:03.633Z,97869.47
2022-08-19T10:42:11.519Z,97871.56
2022-08-19T10:45:14.393Z,97866.59
2022-08-19T10:48:19.574Z,97861.13
2022-08-19T10:51:46.540Z,97865.81
2022-08-19T10:55:08.896Z,97863.06
2022-08-19T10:58:14.398Z,97875.56
2022-08-19T11:01:17.163Z,97868.22
2022-08-19T11:04:21.341Z,97872.50
2022-08-19T11:07:27.495Z,97860.03
2022-08-19T11:10:30.274Z,97863.78
2022-08-19T11:13:38.296Z,97859.28
2022-08-19T11:16:41.570Z,97861.44
2022-08-19T11:19:44.259Z,97861.50
2022-08-19T11:22:46.996Z,97864.81
2022-08-19T11:25:51.651Z,97859.06
2022-08-19T11:28:56.454Z,97853.31
2022-08-19T11:31:59.198Z,97853.63
2022-08-19T11:35:01.953Z,97862.38
2022-08-19T11:38:09.404Z,97852.66
2022-08-19T11:41:13.070Z,97853.03
2022-08-19T11:44:17.319Z,97854.22
2022-08-19T11:47:20.409Z,97848.88
2022-08-19T11:50:24.267Z,97848.56
2022-08-19T11:53:27.341Z,97856.84
2022-08-19T11:56:30.584Z,97851.34
2022-08-19T11:59:35.074Z,97858.78
2022-08-19T12:02:37.802Z,97857.09
2022-08-19T12:05:41.945Z,97855.22
2022-08-19T12:08:46.501Z,97840.41
2022-08-19T12:11:49.183Z,97836.19
2022-08-19T12:14:57.449Z,97842.56
2022-08-19T12:18:00.123Z,97844.66
2022-08-19T12:21:02.821Z,97839.88
2022-08-19T12:24:09.362Z,97846.50
2022-08-19T12:27:12.550Z,97840.22
2022-08-19T12:30:17.214Z,97837.78
2022-08-19T12:33:24.829Z,97844.31
2022-08-19T12:36:27.526Z,97843.47
2022-08-19T12:39:31.430Z,97843.47
2022-08-19T12:42:34.282Z,97837.25
2022-08-19T12:45:38.610Z,97841.63
2022-08-19T12:48:45.925Z,97827.69
2022-08-19T12:51:48.632Z,97838.38
2022-08-19T12:54:54.099Z,97836.47
2022-08-19T12:57:57.629Z,97843.22
2022-08-19T13:01:01.811Z,97848.28
2022-08-19T13:04:05.050Z,97842.75
2022-08-19T13:07:08.176Z,97849.31
2022-08-19T13:10:13.273Z,97851.59
2022-08-19T13:13:16.285Z,97854.72
2022-08-19T13:16:22.851Z,97850.06
2022-08-19T13:19:25.545Z,97844.41
2022-08-19T13:22:28.321Z,97856.84
2022-08-19T13:25:31.086Z,97849.38
2022-08-19T13:28:48.889Z,97852.09
2022-08-19T13:32:10.542Z,97848.16
2022-08-19T13:35:19.133Z,97844.59
2022-08-19T13:38:23.601Z,97853.19
2022-08-19T13:41:26.336Z,97852.41
2022-08-19T13:44:33.493Z,97856.97
2022-08-19T13:47:45.575Z,97866.22
2022-08-19T13:50:49.429Z,97864.91
2022-08-19T13:53:53.119Z,97875.38
2022-08-19T13:56:56.835Z,97865.09
2022-08-19T14:00:02.087Z,97881.81
2022-08-19T14:03:09.395Z,97869.19
2022-08-19T14:06:13.183Z,97874.88
2022-08-19T14:09:17.159Z,97865.66
2022-08-19T14:12:28.377Z,97871.00
2022-08-19T14:15:33.472Z,97872.84
2022-08-19T14:18:40.978Z,97874.81
2022-08-19T14:21:44.513Z,97865.66
2022-08-19T14:24:49.234Z,97872.13
2022-08-19T14:27:53.524Z,97867.72
2022-08-19T14:30:57.538Z,97861.38
2022-08-19T14:34:02.621Z,97867.34
2022-08-19T14:37:07.126Z,97857.41
2022-08-19T14:40:12.639Z,97853.22
2022-08-19T14:43:16.564Z,97853.50
2022-08-19T14:46:24.159Z,97851.94
2022-08-19T14:49:34.891Z,97842.03
2022-08-19T14:52:41.104Z,97851.03
2022-08-19T14:55:46.051Z,97844.00
2022-08-19T14:58:52.810Z,97840.56
2022-08-19T15:01:56.459Z,97844.94
2022-08-19T15:05:02.032Z,97832.16
2022-08-19T15:08:06.603Z,97830.63
2022-08-19T15:11:11.870Z,97826.44
2022-08-19T15:14:16.378Z,97823.06
2022-08-19T15:17:20.431Z,97824.09
2022-08-19T15:20:26.587Z,97824.66
2022-08-19T15:23:30.578Z,97821.25
2022-08-19T15:26:34.212Z,97834.53
2022-08-19T15:29:37.994Z,97824.34
2022-08-19T15:32:44.273Z,97835.09
2022-08-19T15:35:52.760Z,97832.50
2022-08-19T15:38:57.659Z,97842.00
2022-08-19T15:42:01.914Z,97839.84
2022-08-19T15:45:06.179Z,97844.63
2022-08-19T15:48:09.808Z,97837.63
2022-08-19T15:51:15.402Z,97840.34
2022-08-19T15:54:21.967Z,97845.41
2022-08-19T15:57:44.100Z,97841.16
2022-08-19T16:01:05.031Z,97854.78
2022-08-19T16:04:33.934Z,97860.47
2022-08-19T16:07:39.706Z,97856.81
2022-08-19T16:10:43.625Z,97854.09
2022-08-19T16:13:47.523Z,97860.56
2022-08-19T16:16:51.278Z,97857.88
2022-08-19T16:19:54.898Z,97864.19
2022-08-19T16:23:03.621Z,97864.16
2022-08-19T16:26:09.607Z,97874.94
2022-08-19T16:29:13.913Z,97882.63
2022-08-19T16:32:17.975Z,97881.28
2022-08-19T16:35:21.741Z,97882.84
2022-08-19T16:38:27.797Z,97885.94
2022-08-19T16:41:33.039Z,97887.94
2022-08-19T16:44:37.155Z,97887.50
2022-08-19T16:47:41.177Z,97897.13
2022-08-19T16:50:49.489Z,97890.81
2022-08-19T16:53:55.540Z,97900.84
2022-08-19T16:56:59.294Z,97903.66
2022-08-19T17:00:08.746Z,97900.56
2022-08-19T17:03:15.230Z,97908.88
2022-08-19T17:06:22.817Z,97904.84
2022-08-19T17:09:28.400Z,97915.06
2022-08-19T17:12:37.624Z,97911.03
2022-08-19T17:15:41.706Z,97917.91
2022-08-19T17:18:45.600Z,97919.50
2022-08-19T17:21:49.428Z,97923.38
2022-08-19T17:24:57.884Z,97924.00
2022-08-19T17:28:08.919Z,97929.66
2022-08-19T17:31:12.561Z,97913.44
2022-08-19T17:34:17.562Z,97927.03
2022-08-19T17:37:21.510Z,97924.56
2022-08-19T17:40:29.861Z,97920.94
2022-08-19T17:43:38.936Z,97927.00
2022-08-19T17:46:48.386Z,97917.38
2022-08-19T17:49:52.181Z,97921.28
2022-08-19T17:52:56.316Z,97916.25
2022-08-19T17:56:02.316Z,97923.66
2022-08-19T17:59:09.121Z,97923.28
2022-08-19T18:02:21.420Z,97928.31
2022-08-19T18:05:29.687Z,97931.03
2022-08-19T18:08:34.063Z,97926.38
2022-08-19T18:11:39.315Z,97928.66
2022-08-19T18:14:43.479Z,97937.47
2022-08-19T18:17:47.026Z,97941.06
2022-08-19T18:20:50.782Z,97940.63
2022-08-19T18:23:55.202Z,97948.47
2022-08-19T18:27:07.307Z,97947.69
2022-08-19T18:30:11.847Z,97943.00
2022-08-19T18:33:15.634Z,97945.72
2022-08-19T18:36:37.362Z,97946.88
2022-08-19T18:40:00.604Z,97951.19
2022-08-19T18:43:23.536Z,97958.97
2022-08-19T18:46:44.397Z,97960.44
2022-08-19T18:49:51.359Z,97964.66
2022-08-19T18:52:55.107Z,97960.81
2022-08-19T18:55:59.879Z,97956.81
2022-08-19T18:59:05.126Z,97964.66
2022-08-19T19:02:09.016Z,97966.59
2022-08-19T19:05:14.442Z,97974.78
2022-08-19T19:08:18.325Z,97967.75
2022-08-19T19:11:26.245Z,97978.66
2022-08-19T19:14:50.551Z,97974.78
2022-08-19T19:17:54.778Z,97980.59
2022-08-19T19:21:00.140Z,97983.22
2022-08-19T19:24:04.701Z,97988.16
2022-08-19T19:27:10.367Z,97988.38
2022-08-19T19:30:16.318Z,97984.34
2022-08-19T19:33:20.267Z,97986.94
2022-08-19T19:36:24.837Z,97994.38
2022-08-19T19:39:33.999Z,97995.50
2022-08-19T19:42:52.214Z,97996.19
2022-08-19T19:45:57.991Z,98001.31
2022-08-19T19:49:01.785Z,97995.41
2022-08-19T19:52:05.603Z,98004.38
2022-08-19T19:55:18.534Z,98000.84
2022-08-19T19:58:29.103Z,97999.25
2022-08-19T20:01:34.594Z,97997.31
2022-08-19T20:04:38.763Z,98010.59
2022-08-19T20:08:00.943Z,98009.03
2022-08-19T20:11:06.586Z,98012.47
2022-08-19T20:14:12.720Z,98017.81
2022-08-19T20:17:20.752Z,98017.47
2022-08-19T20:20:25.086Z,98015.53
2022-08-19T20:23:28.997Z,98018.25
2022-08-19T20:26:34.046Z,98015.97
2022-08-19T20:29:44.185Z,98022.94
2022-08-19T20:32:50.438Z,98014.84
2022-08-19T20:35:54.406Z,98019.84
2022-08-19T20:38:58.131Z,98021.53
2022-08-19T20:42:01.801Z,98021.38
2022-08-19T20:45:18.008Z,98014.81
2022-08-19T20:48:36.402Z,98020.31
2022-08-19T20:51:39.353Z,98021.03
2022-08-19T20:54:42.346Z,98017.41
2022-08-19T20:57:46.619Z,98018.13
2022-08-19T21:00:50.855Z,98012.47
2022-08-19T21:03:54.983Z,98020.03
2022-08-19T21:06:57.694Z,98012.19
2022-08-19T21:10:00.474Z,98019.41
2022-08-19T21:13:03.720Z,98015.28
2022-08-19T21:16:09.017Z,98019.56
2022-08-19T21:19:14.124Z,98024.41
2022-08-19T21:22:16.835Z,98030.75
2022-08-19T21:25:19.638Z,98022.25
2022-08-19T21:28:34.632Z,98017.97
2022-08-19T21:31:39.049Z,98022.06
2022-08-19T21:34:46.575Z,98021.69
2022-08-19T21:37:49.318Z,98027.97
2022-08-19T21:40:52.097Z,98026.59
2022-08-19T21:43:54.891Z,98019.16
2022-08-19T21:46:57.609Z,98030.41
2022-08-19T21:50:01.643Z,98028.81
2022-08-19T21:53:04.388Z,98029.34
2022-08-19T21:56:07.657Z,98032.13
2022-08-19T21:59:10.400Z,98034.00
2022-08-19T22:02:21.960Z,98032.50
2022-08-19T22:05:27.119Z,98029.78
2022-08-19T22:08:31.293Z,98035.88
2022-08-19T22:11:34.582Z,98037.81
2022-08-19T22:14:38.220Z,98037.09
2022-08-19T22:17:41.946Z,98038.09
2022-08-19T22:20:48.074Z,98049.31
2022-08-19T22:23:50.774Z,98037.13
2022-08-19T22:26:53.449Z,98044.97
2022-08-19T22:29:56.164Z,98047.19
2022-08-19T22:33:01.257Z,98056.00
2022-08-19T22:36:08.337Z,98057.63
2022-08-19T22:39:11.119Z,98073.66
2022-08-19T22:42:13.955Z,98062.22
2022-08-19T22:45:18.157Z,98073.72
2022-08-19T22:48:23.286Z,98070.66
2022-08-19T22:51:44.761Z,98074.19
2022-08-19T22:54:49.637Z,98068.56
2022-08-19T22:57:53.375Z,98069.16
2022-08-19T23:00:56.276Z,98075.56
2022-08-19T23:04:00.465Z,98068.09
2022-08-19T23:07:08.267Z,98075.13
2022-08-19T23:10:12.242Z,98076.28
2022-08-19T23:13:17.222Z,98078.50
2022-08-19T23:16:20.646Z,98081.22
2022-08-19T23:19:23.532Z,98074.16
2022-08-19T23:22:29.338Z,98077.41
2022-08-19T23:25:34.170Z,98075.50
2022-08-19T23:28:54.710Z,98075.41
2022-08-19T23:31:57.421Z,98078.22
2022-08-19T23:35:00.291Z,98081.38
2022-08-19T23:38:05.811Z,98075.28
2022-08-19T23:41:10.240Z,98080.88
2022-08-19T23:44:14.510Z,98078.22
2022-08-19T23:47:17.898Z,98071.06
2022-08-19T23:50:21.900Z,98078.44
2022-08-19T23:53:27.093Z,98075.25
2022-08-19T23:56:29.801Z,98077.72
2022-08-19T23:59:32.585Z,98075.13
